Time;durP1;ratioP1;P1;durP2;ratioP2;P2;SDS_P1;SDS_P2;PMS_P1;PMS_P2;Temp;Humidity;BMP_temperature;BMP_pressure;BME280_temperature;BME280_humidity;BME280_pressure;Samples;Min_cycle;Max_cycle;Signal;HPM_P1;HPM_P2
2022/04/09 00:00:30;;;;;;;13.25;8.20;;;;;;;13.97;54.75;99590.28;5031070;28;20113;-85
2022/04/09 00:02:57;;;;;;;21.83;12.10;;;;;;;13.99;54.59;99585.97;5030063;28;20265;-83
2022/04/09 00:05:22;;;;;;;37.33;18.90;;;;;;;13.98;54.25;99578.19;5032326;28;20032;-85
2022/04/09 00:07:48;;;;;;;28.58;14.82;;;;;;;13.95;54.63;99580.75;5030500;28;20030;-87
2022/04/09 00:10:14;;;;;;;17.30;8.10;;;;;;;14.05;54.30;99587.75;5030402;28;20136;-87
2022/04/09 00:12:44;;;;;;;23.05;10.85;;;;;;;13.97;54.61;99592.88;5030793;28;20041;-89
2022/04/09 00:15:09;;;;;;;;;;;;;;;13.97;54.74;99592.88;5029961;28;20485;-88
2022/04/09 00:17:39;;;;;;;9.93;4.43;;;;;;;13.81;54.81;99602.25;5046117;28;19983;-89
2022/04/09 00:20:05;;;;;;;;;;;;;;;13.85;55.06;99597.97;5031076;28;20451;-88
2022/04/09 00:22:31;;;;;;;11.60;5.45;;;;;;;13.76;55.11;99575.41;5046957;28;19920;-86
2022/04/09 00:24:57;;;;;;;10.30;5.13;;;;;;;13.61;55.64;99581.31;5030961;28;20060;-87
2022/04/09 00:27:22;;;;;;;13.60;4.07;;;;;;;13.37;56.69;99590.56;5030132;28;20508;-87
2022/04/09 00:29:47;;;;;;;11.18;3.70;;;;;;;12.28;59.10;99513.13;5029411;28;20029;-82
2022/04/09 00:32:13;;;;;;;12.38;5.40;;;;;;;12.62;59.85;99561.94;5030883;28;20040;-81
2022/04/09 00:34:38;;;;;;;16.23;4.97;;;;;;;12.81;60.41;99572.53;5028911;28;20037;-89
2022/04/09 00:37:04;;;;;;;10.68;4.18;;;;;;;13.02;60.86;99572.84;5030058;28;20051;-92
2022/04/09 00:39:29;;;;;;;12.98;3.58;;;;;;;13.15;61.13;99575.59;5030111;28;20029;-81
2022/04/09 00:41:55;;;;;;;15.13;4.53;;;;;;;12.89;61.67;99525.16;5031186;28;20479;-90
2022/04/09 00:44:21;;;;;;;18.63;4.40;;;;;;;13.20;61.63;99566.13;5031055;28;20033;-92
2022/04/09 00:46:47;;;;;;;18.73;5.25;;;;;;;13.10;61.64;99573.78;5031481;28;20064;-92
2022/04/09 00:49:14;;;;;;;12.90;4.45;;;;;;;13.29;60.99;99586.09;5030304;28;20476;-83
2022/04/09 00:51:41;;;;;;;9.60;2.95;;;;;;;13.05;62.30;99578.03;5032111;28;20049;-90
2022/04/09 00:54:10;;;;;;;12.52;3.67;;;;;;;12.67;63.86;99575.81;5031305;28;20112;-94
2022/04/09 00:56:38;;;;;;;15.15;3.88;;;;;;;12.50;64.82;99573.00;5030263;28;20040;-90
2022/04/09 00:59:06;;;;;;;12.13;3.75;;;;;;;12.58;65.07;99593.81;5032405;28;20021;-92
2022/04/09 01:01:37;;;;;;;9.38;3.42;;;;;;;12.66;64.91;99588.75;5031774;28;20033;-78
2022/04/09 01:04:11;;;;;;;13.65;3.65;;;;;;;12.65;64.87;99585.28;5029983;28;20057;-86
2022/04/09 01:06:37;;;;;;;15.55;3.05;;;;;;;12.57;63.99;99579.13;5043636;28;20367;-84
2022/04/09 01:09:05;;;;;;;10.38;3.50;;;;;;;12.45;64.61;99596.22;5029886;28;20065;-83
2022/04/09 01:11:32;;;;;;;13.68;3.28;;;;;;;12.33;64.56;99583.09;5028302;28;20526;-82
2022/04/09 01:13:58;;;;;;;15.55;4.25;;;;;;;12.24;65.03;99601.06;5028372;28;20041;-85
2022/04/09 01:16:28;;;;;;;19.77;3.85;;;;;;;12.13;65.10;99604.34;5029730;28;20469;-83
2022/04/09 01:19:03;;;;;;;11.65;3.83;;;;;;;11.67;65.48;99543.19;5029635;28;20022;-79
2022/04/09 01:21:29;;;;;;;13.02;3.35;;;;;;;11.70;66.44;99582.00;5029459;28;20033;-79
2022/04/09 01:23:55;;;;;;;10.63;4.28;;;;;;;11.63;66.65;99568.09;5028550;28;20025;-78
2022/04/09 01:26:21;;;;;;;10.75;3.75;;;;;;;11.85;66.91;99591.75;5029496;28;20030;-77
2022/04/09 01:28:47;;;;;;;20.85;3.58;;;;;;;11.90;67.95;99601.34;5029520;28;20079;-78
2022/04/09 01:31:13;;;;;;;8.98;3.05;;;;;;;11.62;68.69;99567.22;5029630;28;20049;-77
2022/04/09 01:33:40;;;;;;;12.80;3.72;;;;;;;11.78;69.15;99593.38;5029529;28;20489;-80
2022/04/09 01:36:06;;;;;;;20.83;4.80;;;;;;;11.61;69.43;99580.13;5028744;28;20056;-80
2022/04/09 01:38:34;;;;;;;11.82;3.67;;;;;;;11.53;69.93;99587.75;5030356;28;20079;-83
2022/04/09 01:40:59;;;;;;;17.17;3.60;;;;;;;11.60;70.28;99596.47;5029962;28;20053;-79
2022/04/09 01:43:25;;;;;;;13.18;3.60;;;;;;;11.74;69.87;99586.38;5030395;28;20096;-83
2022/04/09 01:45:50;;;;;;;16.17;3.88;;;;;;;11.58;69.56;99575.75;5031091;28;20025;-76
2022/04/09 01:48:16;;;;;;;17.63;3.97;;;;;;;11.21;69.64;99545.78;5033992;28;20033;-78
2022/04/09 01:51:01;;;;;;;11.68;3.40;;;;;;;11.45;69.93;99592.78;5033179;28;20029;-77
2022/04/09 01:53:27;;;;;;;10.23;3.35;;;;;;;11.32;70.30;99589.06;5009778;28;20033;-77
2022/04/09 01:55:52;;;;;;;10.57;4.00;;;;;;;11.28;71.16;99584.69;5011128;28;20048;-78
2022/04/09 01:58:17;;;;;;;19.52;5.10;;;;;;;11.28;70.94;99584.69;5010958;28;20080;-78
2022/04/09 02:00:43;;;;;;;14.88;4.25;;;;;;;11.13;71.19;99585.25;5010860;28;20127;-78
2022/04/09 02:03:08;;;;;;;10.40;3.90;;;;;;;10.92;72.02;99577.91;5011371;28;20048;-77
2022/04/09 02:05:35;;;;;;;11.65;3.55;;;;;;;10.79;72.30;99558.72;5011142;28;20037;-79
2022/04/09 02:08:01;;;;;;;12.10;3.78;;;;;;;10.85;72.50;99591.53;5010549;28;20421;-79
2022/04/09 02:10:31;;;;;;;11.65;3.20;;;;;;;10.22;75.26;99590.94;5011029;28;20056;-78
2022/04/09 02:12:57;;;;;;;6.07;2.90;;;;;;;10.09;76.23;99586.31;5011087;28;20450;-78
2022/04/09 02:15:22;;;;;;;11.95;3.55;;;;;;;9.85;76.66;99562.53;5011400;28;20112;-76
2022/04/09 02:17:48;;;;;;;7.55;3.45;;;;;;;10.06;76.73;99586.25;5011559;28;20131;-78
2022/04/09 02:20:14;;;;;;;8.18;3.25;;;;;;;10.14;75.75;99582.16;5011668;28;20046;-77
2022/04/09 02:22:42;;;;;;;13.57;6.82;;;;;;;10.24;75.12;99583.25;5011388;28;20124;-75
2022/04/09 02:25:12;;;;;;;25.25;10.55;;;;;;;10.19;74.58;99573.69;5023677;28;20508;-73
2022/04/09 02:27:38;;;;;;;24.92;11.32;;;;;;;10.09;73.46;99548.50;5033525;28;20061;-75
2022/04/09 02:30:06;;;;;;;11.85;5.20;;;;;;;10.30;72.48;99536.94;5033592;28;20466;-74
2022/04/09 02:32:32;;;;;;;29.20;13.18;;;;;;;10.34;71.70;99567.13;5030923;28;20103;-78
2022/04/09 02:34:57;;;;;;;16.10;6.47;;;;;;;10.18;72.34;99568.47;5030806;28;20398;-77
2022/04/09 02:37:23;;;;;;;16.60;6.03;;;;;;;10.05;72.56;99557.00;5030789;28;20469;-75
2022/04/09 02:39:49;;;;;;;11.13;5.07;;;;;;;10.20;72.15;99572.88;5030814;28;20117;-81
2022/04/09 02:42:15;;;;;;;11.65;4.30;;;;;;;10.23;72.40;99578.91;5030784;28;20045;-77
2022/04/09 02:44:41;;;;;;;7.03;3.50;;;;;;;9.77;73.00;99534.81;5030878;28;20060;-76
2022/04/09 02:47:07;;;;;;;7.93;3.50;;;;;;;9.99;72.61;99567.16;5030641;28;20091;-78
2022/04/09 02:49:32;;;;;;;7.60;3.30;;;;;;;9.95;72.60;99581.69;5030633;28;20041;-77
2022/04/09 02:51:58;;;;;;;12.18;3.60;;;;;;;10.15;72.06;99576.16;5030436;28;20049;-74
2022/04/09 02:54:24;;;;;;;6.13;3.38;;;;;;;10.39;71.22;99585.34;5024862;28;20578;-77
2022/04/09 02:56:50;;;;;;;11.18;4.00;;;;;;;10.41;70.39;99558.75;5049869;28;20040;-78
2022/04/09 02:59:15;;;;;;;9.00;3.90;;;;;;;10.27;70.03;99545.50;5049686;28;20500;-80
2022/04/09 03:01:43;;;;;;;13.98;4.70;;;;;;;10.36;69.88;99586.16;5032829;28;20526;-80
2022/04/09 03:04:09;;;;;;;11.90;4.18;;;;;;;9.76;70.99;99540.81;5051950;28;20048;-80
2022/04/09 03:06:34;;;;;;;8.43;3.53;;;;;;;9.60;71.47;99552.44;5051648;28;20482;-82
2022/04/09 03:08:59;;;;;;;5.93;3.50;;;;;;;9.45;71.33;99553.78;5053045;28;20082;-83
2022/04/09 03:11:25;;;;;;;8.50;3.55;;;;;;;9.73;71.11;99582.84;5052877;28;20424;-83
2022/04/09 03:13:51;;;;;;;9.32;3.13;;;;;;;9.69;71.05;99576.75;5052943;28;20416;-81
2022/04/09 03:16:16;;;;;;;8.02;3.38;;;;;;;9.49;71.96;99576.22;5053077;28;20468;-81
2022/04/09 03:18:42;;;;;;;9.32;3.75;;;;;;;9.41;72.18;99582.88;5052826;28;20031;-80
2022/04/09 03:21:07;;;;;;;9.45;3.83;;;;;;;9.35;72.19;99582.69;5052629;28;20112;-83
2022/04/09 03:23:33;;;;;;;7.82;3.40;;;;;;;9.17;72.21;99573.63;5052936;28;20038;-80
2022/04/09 03:25:58;;;;;;;9.55;3.63;;;;;;;8.95;72.86;99572.16;5052810;28;20111;-80
2022/04/09 03:28:24;;;;;;;7.72;3.20;;;;;;;8.96;73.57;99585.88;5052860;28;20072;-80
2022/04/09 03:30:50;;;;;;;8.95;3.40;;;;;;;8.81;74.14;99579.47;5052610;28;20082;-82
2022/04/09 03:33:16;;;;;;;5.88;3.53;;;;;;;8.49;76.70;99605.09;5051237;28;20048;-81
2022/04/09 03:35:41;;;;;;;5.00;3.13;;;;;;;8.54;76.69;99595.81;5052491;28;20033;-82
2022/04/09 03:38:11;;;;;;;9.13;3.53;;;;;;;8.51;76.92;99607.69;5051416;28;20143;-79
2022/04/09 03:40:37;;;;;;;10.32;3.67;;;;;;;8.36;77.09;99611.53;5052693;28;20069;-80
2022/04/09 03:43:03;;;;;;;8.45;3.40;;;;;;;8.40;77.54;99604.78;5052474;28;20177;-79
2022/04/09 03:45:28;;;;;;;6.93;3.60;;;;;;;8.40;77.35;99605.63;5052377;28;20104;-79
2022/04/09 03:47:54;;;;;;;6.80;3.45;;;;;;;8.31;77.73;99595.06;5052237;28;20032;-81
2022/04/09 03:50:20;;;;;;;11.80;3.70;;;;;;;8.53;77.48;99608.63;5052261;28;20025;-80
2022/04/09 03:52:45;;;;;;;9.48;4.10;;;;;;;8.63;77.26;99602.06;5052248;28;20056;-82
2022/04/09 03:55:11;;;;;;;6.50;3.58;;;;;;;8.70;76.54;99606.59;5052163;28;20440;-81
2022/04/09 03:57:38;;;;;;;7.50;3.65;;;;;;;8.57;76.56;99598.50;5052115;28;20048;-82
2022/04/09 04:00:04;;;;;;;6.82;3.75;;;;;;;8.66;76.61;99599.59;5052192;28;20033;-83
2022/04/09 04:02:30;;;;;;;5.72;3.65;;;;;;;8.39;77.54;99610.75;5050572;28;20025;-81
2022/04/09 04:05:01;;;;;;;11.05;4.10;;;;;;;8.28;77.62;99594.97;5052030;28;20094;-81
2022/04/09 04:07:26;;;;;;;10.80;3.95;;;;;;;8.20;76.84;99551.00;5051965;28;20029;-81
2022/04/09 04:09:52;;;;;;;7.30;3.95;;;;;;;8.50;76.75;99609.41;5051524;28;20408;-82
2022/04/09 04:12:18;;;;;;;8.85;3.55;;;;;;;8.24;77.14;99595.69;5051880;28;20435;-82
2022/04/09 04:14:44;;;;;;;7.80;3.70;;;;;;;8.19;78.30;99612.69;5051787;28;20078;-83
2022/04/09 04:17:10;;;;;;;25.20;12.23;;;;;;;8.22;78.67;99605.03;5050439;28;20025;-80
2022/04/09 04:19:36;;;;;;;15.48;9.00;;;;;;;8.20;78.95;99611.81;5051872;28;20091;-80
2022/04/09 04:22:02;;;;;;;8.05;4.53;;;;;;;8.18;79.22;99616.94;5052085;28;20032;-81
2022/04/09 04:24:28;;;;;;;7.88;5.30;;;;;;;8.18;79.31;99619.50;5051515;28;20596;-82
2022/04/09 04:26:53;;;;;;;16.00;11.90;;;;;;;8.15;79.83;99611.69;5050285;28;20052;-82
2022/04/09 04:29:19;;;;;;;8.20;5.18;;;;;;;8.27;79.55;99606.06;5051658;28;20029;-83
2022/04/09 04:31:44;;;;;;;11.90;6.40;;;;;;;8.32;79.22;99586.50;5050018;28;20021;-83
2022/04/09 04:34:10;;;;;;;10.20;5.60;;;;;;;8.58;79.10;99622.50;5051362;28;20032;-82
2022/04/09 04:36:35;;;;;;;8.63;5.53;;;;;;;8.42;79.75;99606.56;5051758;28;20021;-82
2022/04/09 04:39:00;;;;;;;7.90;5.28;;;;;;;8.45;79.90;99623.78;5051721;28;20033;-79
2022/04/09 04:41:26;;;;;;;11.82;4.88;;;;;;;8.53;80.40;99619.78;5050072;28;20127;-83
2022/04/09 04:43:52;;;;;;;6.57;4.13;;;;;;;8.44;80.25;99601.47;5051183;28;20484;-82
2022/04/09 04:46:19;;;;;;;7.45;4.00;;;;;;;8.54;79.84;99579.50;5050244;28;20492;-80
2022/04/09 04:48:46;;;;;;;9.23;3.70;;;;;;;8.80;78.52;99598.31;5051278;28;20021;-82
2022/04/09 04:51:11;;;;;;;9.65;5.10;;;;;;;8.65;78.18;99554.09;5049949;28;20036;-81
2022/04/09 04:53:37;;;;;;;14.93;9.20;;;;;;;9.10;78.14;99612.03;5049942;28;20408;-79
2022/04/09 04:56:02;;;;;;;12.60;5.30;;;;;;;9.33;77.42;99615.25;5050923;28;20491;-80
2022/04/09 04:58:28;;;;;;;9.85;4.57;;;;;;;9.58;76.36;99606.50;5050973;28;20091;-79
2022/04/09 05:00:53;;;;;;;9.88;4.70;;;;;;;9.73;75.44;99603.47;5049603;28;20029;-79
2022/04/09 05:03:19;;;;;;;9.73;5.55;;;;;;;9.75;76.36;99586.34;5050900;28;20373;-79
2022/04/09 05:05:44;;;;;;;9.40;4.82;;;;;;;10.10;78.32;99580.34;5042005;28;20035;-79
2022/04/09 05:08:10;;;;;;;12.10;6.30;;;;;;;10.49;75.34;99600.19;5048711;28;20107;-79
2022/04/09 05:10:35;;;;;;;12.60;6.03;;;;;;;10.60;74.89;99590.13;5050595;28;20048;-81
2022/04/09 05:13:01;;;;;;;15.35;6.20;;;;;;;10.86;74.51;99606.19;5042622;28;20052;-82
2022/04/09 05:15:26;;;;;;;10.15;6.00;;;;;;;10.85;73.13;99568.28;5042309;28;20502;-82
2022/04/09 05:17:52;;;;;;;8.85;4.60;;;;;;;10.98;74.21;99584.94;5041348;28;20033;-82
2022/04/09 05:20:17;;;;;;;6.80;3.95;;;;;;;11.08;73.51;99584.28;5037572;28;20026;-81
2022/04/09 05:22:46;;;;;;;8.95;3.72;;;;;;;10.98;71.62;99572.03;5043731;28;20555;-80
2022/04/09 05:25:13;;;;;;;8.17;3.67;;;;;;;11.22;72.45;99596.63;5043948;28;20031;-79
2022/04/09 05:27:43;;;;;;;6.65;3.60;;;;;;;11.34;71.90;99594.28;5040105;28;20485;-79
2022/04/09 05:30:09;;;;;;;9.73;4.20;;;;;;;11.35;72.37;99590.81;5037568;28;20125;-81
2022/04/09 05:32:36;;;;;;;10.18;4.97;;;;;;;11.24;72.94;99546.72;5040721;28;20036;-79
2022/04/09 05:35:06;;;;;;;10.70;4.43;;;;;;;11.65;72.56;99600.91;5040158;28;20485;-80
2022/04/09 05:37:31;;;;;;;6.95;4.13;;;;;;;11.68;72.50;99596.63;5038913;28;20489;-81
2022/04/09 05:39:57;;;;;;;7.10;3.47;;;;;;;11.73;73.05;99595.84;5039050;28;20090;-82
2022/04/09 05:42:25;;;;;;;12.05;4.40;;;;;;;11.85;71.77;99599.50;5040527;28;20037;-80
2022/04/09 05:44:50;;;;;;;8.60;4.25;;;;;;;11.94;71.13;99607.44;5038580;28;20049;-80
2022/04/09 05:47:16;;;;;;;10.45;4.35;;;;;;;11.80;70.97;99581.31;5036978;28;20076;-78
2022/04/09 05:49:41;;;;;;;10.02;4.65;;;;;;;11.94;71.51;99597.09;5030531;28;20469;-85
2022/04/09 05:52:07;;;;;;;8.80;4.55;;;;;;;12.05;71.68;99593.00;5029102;28;20409;-81
2022/04/09 05:54:32;;;;;;;8.20;5.13;;;;;;;12.13;72.06;99583.63;5030474;28;20116;-79
2022/04/09 05:57:02;;;;;;;9.52;5.05;;;;;;;12.30;71.50;99583.91;5029079;28;20112;-80
2022/04/09 05:59:28;;;;;;;8.15;4.53;;;;;;;12.46;71.85;99591.91;5037896;28;20441;-81
2022/04/09 06:01:53;;;;;;;12.75;5.28;;;;;;;12.48;72.15;99563.47;5040413;28;20037;-84
2022/04/09 06:04:21;;;;;;;11.70;5.03;;;;;;;12.55;72.90;99557.53;5038417;28;20048;-81
2022/04/09 06:06:48;;;;;;;8.10;4.72;;;;;;;12.76;73.28;99577.66;5041000;28;20105;-78
2022/04/09 06:09:14;;;;;;;6.40;3.88;;;;;;;12.88;72.81;99580.41;5038765;28;20048;-80
2022/04/09 06:11:39;;;;;;;7.70;3.80;;;;;;;12.94;72.55;99566.69;5040024;28;20057;-82
2022/04/09 06:14:05;;;;;;;8.27;4.32;;;;;;;12.95;72.47;99555.47;5048860;28;20535;-80
2022/04/09 06:16:31;;;;;;;8.05;3.92;;;;;;;13.02;72.79;99553.81;5039439;28;20028;-79
2022/04/09 06:18:56;;;;;;;7.68;3.60;;;;;;;13.20;72.64;99577.34;5047340;28;20037;-80
2022/04/09 06:21:22;;;;;;;6.00;3.05;;;;;;;13.17;72.44;99558.31;5042132;28;20029;-75
2022/04/09 06:23:48;;;;;;;13.10;3.47;;;;;;;13.35;72.03;99574.06;5039331;28;20100;-76
2022/04/09 06:26:13;;;;;;;10.68;3.80;;;;;;;13.39;71.21;99570.69;5039021;28;20028;-78
2022/04/09 06:28:39;;;;;;;8.35;3.90;;;;;;;13.36;71.90;99569.78;5040410;28;20021;-77
2022/04/09 06:31:05;;;;;;;11.32;4.28;;;;;;;13.50;72.16;99570.81;5038695;28;20017;-78
2022/04/09 06:33:31;;;;;;;7.95;3.42;;;;;;;13.49;71.67;99552.66;5024536;28;20064;-78
2022/04/09 06:35:56;;;;;;;7.65;3.30;;;;;;;13.65;71.08;99571.84;5044188;28;20095;-78
2022/04/09 06:38:22;;;;;;;6.68;3.30;;;;;;;13.57;70.62;99532.84;5042344;28;20096;-78
2022/04/09 06:40:47;;;;;;;6.43;3.25;;;;;;;13.88;71.74;99561.66;5044015;28;20021;-74
2022/04/09 06:43:13;;;;;;;7.38;3.65;;;;;;;14.03;70.10;99567.00;5043201;28;20025;-77
2022/04/09 06:45:38;;;;;;;7.53;3.58;;;;;;;14.26;68.20;99555.06;5023539;28;20059;-77
2022/04/09 06:48:04;;;;;;;5.05;3.15;;;;;;;14.42;68.31;99558.59;5044019;28;20029;-78
2022/04/09 06:50:29;;;;;;;6.93;3.20;;;;;;;14.45;67.45;99540.47;5042736;28;20022;-78
2022/04/09 06:52:55;;;;;;;7.25;3.22;;;;;;;14.67;67.96;99565.72;5041167;28;20411;-79
2022/04/09 06:55:20;;;;;;;6.18;3.00;;;;;;;14.80;66.99;99558.00;5044214;28;20039;-77
2022/04/09 06:57:47;;;;;;;7.80;3.13;;;;;;;14.94;66.10;99551.16;5041750;28;20108;-77
2022/04/09 07:00:14;;;;;;;5.07;2.85;;;;;;;15.00;66.54;99563.28;5040819;28;20510;-77
2022/04/09 07:02:40;;;;;;;6.82;3.55;;;;;;;14.81;66.69;99516.41;5049344;28;20082;-78
2022/04/09 07:05:07;;;;;;;6.22;2.95;;;;;;;15.11;66.81;99556.38;5052580;28;20025;-79
2022/04/09 07:07:33;;;;;;;6.45;3.25;;;;;;;15.11;66.44;99548.59;5052289;28;20029;-78
2022/04/09 07:10:09;;;;;;;9.15;3.17;;;;;;;15.28;66.01;99553.00;5051963;28;20486;-77
2022/04/09 07:12:36;;;;;;;11.85;3.40;;;;;;;15.42;65.55;99563.44;5032940;28;20049;-75
2022/04/09 07:15:03;;;;;;;7.30;3.05;;;;;;;15.61;65.21;99560.00;5049984;28;20488;-77
2022/04/09 07:17:29;;;;;;;7.13;3.35;;;;;;;15.61;65.23;99541.78;5052076;28;20104;-77
2022/04/09 07:20:13;;;;;;;7.15;3.10;;;;;;;15.95;64.76;99551.38;5052035;28;20467;-75
2022/04/09 07:22:40;;;;;;;7.00;3.13;;;;;;;15.97;64.07;99526.22;5051579;28;20090;-75
2022/04/09 07:25:06;;;;;;;5.70;2.90;;;;;;;16.18;64.28;99546.19;5051808;28;20469;-79
2022/04/09 07:27:40;;;;;;;6.55;3.13;;;;;;;16.34;63.95;99540.06;5051618;28;20029;-80
2022/04/09 07:30:08;;;;;;;9.50;3.20;;;;;;;16.51;63.29;99534.00;5051377;28;20506;-80
2022/04/09 07:32:33;;;;;;;11.07;3.40;;;;;;;16.76;62.51;99532.16;5051806;28;20106;-80
2022/04/09 07:34:59;;;;;;;8.57;3.80;;;;;;;16.85;61.78;99515.63;5051394;28;20700;-79
2022/04/09 07:37:25;;;;;;;7.22;3.17;;;;;;;17.10;60.78;99529.44;5051222;28;20513;-77
2022/04/09 07:39:50;;;;;;;6.75;3.13;;;;;;;17.02;59.58;99491.25;5051049;28;20021;-80
2022/04/09 07:42:16;;;;;;;5.35;2.63;;;;;;;17.26;59.90;99527.63;5051274;28;20025;-83
2022/04/09 07:44:41;;;;;;;7.82;2.80;;;;;;;17.32;59.71;99539.78;5052374;28;20096;-80
2022/04/09 07:47:07;;;;;;;7.32;3.40;;;;;;;17.45;59.24;99532.72;5032865;28;20026;-81
2022/04/09 07:49:32;;;;;;;8.43;3.20;;;;;;;17.58;59.03;99528.28;5046080;28;20431;-82
2022/04/09 07:51:57;;;;;;;10.25;2.97;;;;;;;17.73;59.25;99543.84;5044877;28;20491;-78
2022/04/09 07:54:24;;;;;;;6.63;3.15;;;;;;;17.84;58.25;99538.53;5030980;28;20462;-76
2022/04/09 07:56:50;;;;;;;12.15;3.35;;;;;;;17.90;57.99;99525.44;5030712;28;20071;-77
2022/04/09 07:59:16;;;;;;;9.38;3.53;;;;;;;18.07;57.72;99535.78;5031310;28;20080;-78
2022/04/09 08:01:41;;;;;;;11.98;3.15;;;;;;;18.12;57.87;99538.34;5030815;28;20057;-75
2022/04/09 08:04:07;;;;;;;5.85;3.10;;;;;;;18.24;57.26;99516.47;5030918;28;20528;-80
2022/04/09 08:06:32;;;;;;;12.52;3.63;;;;;;;18.37;56.68;99519.84;5030788;28;20403;-80
2022/04/09 08:08:58;;;;;;;8.68;3.50;;;;;;;18.51;56.29;99512.69;5031112;28;20021;-78
2022/04/09 08:11:23;;;;;;;7.32;3.05;;;;;;;18.55;56.67;99495.22;5030580;28;20072;-79
2022/04/09 08:13:49;;;;;;;8.45;3.00;;;;;;;18.70;56.55;99515.09;5031889;28;20116;-78
2022/04/09 08:16:15;;;;;;;9.50;3.20;;;;;;;18.86;57.42;99508.78;5043049;28;20040;-77
2022/04/09 08:18:40;;;;;;;6.38;2.75;;;;;;;18.99;57.51;99509.56;5031771;28;20033;-78
2022/04/09 08:21:06;;;;;;;6.55;2.65;;;;;;;19.09;55.29;99505.06;5030685;28;20032;-79
2022/04/09 08:23:32;;;;;;;10.38;3.25;;;;;;;19.26;54.41;99496.13;5030704;28;20025;-78
2022/04/09 08:25:58;;;;;;;7.05;3.15;;;;;;;19.40;54.48;99494.16;5030808;28;20440;-80
2022/04/09 08:28:25;;;;;;;9.98;2.97;;;;;;;19.51;53.52;99473.91;5034875;28;20413;-77
2022/04/09 08:30:51;;;;;;;6.68;2.95;;;;;;;19.75;52.76;99474.41;5041719;28;20025;-78
2022/04/09 08:33:17;;;;;;;7.93;3.03;;;;;;;19.72;53.27;99469.22;5043693;28;20013;-78
2022/04/09 08:35:43;;;;;;;6.95;2.72;;;;;;;19.78;55.18;99476.13;5050198;28;20025;-75
2022/04/09 08:38:09;;;;;;;7.63;2.78;;;;;;;19.95;51.61;99473.22;5050689;28;20095;-79
2022/04/09 08:40:38;;;;;;;15.90;3.25;;;;;;;20.14;51.23;99463.28;5050847;28;20559;-76
2022/04/09 08:43:05;;;;;;;9.23;3.30;;;;;;;20.26;50.66;99463.06;5050191;28;20037;-78
2022/04/09 08:45:42;;;;;;;6.60;2.67;;;;;;;20.29;51.34;99459.53;5050557;28;20021;-79
2022/04/09 08:48:09;;;;;;;6.50;2.72;;;;;;;20.52;51.27;99452.06;5050401;28;20020;-79
2022/04/09 08:50:37;;;;;;;8.75;2.88;;;;;;;20.49;50.50;99418.03;5050246;28;20025;-78
2022/04/09 08:53:06;;;;;;;5.53;2.65;;;;;;;20.87;48.41;99446.97;5050009;28;20542;-78
2022/04/09 08:55:36;;;;;;;7.40;2.33;;;;;;;21.10;48.41;99443.00;5047801;28;20061;-79
2022/04/09 08:58:02;;;;;;;9.15;2.97;;;;;;;21.11;48.03;99406.22;5050233;28;20108;-78
2022/04/09 09:00:28;;;;;;;6.80;2.30;;;;;;;21.43;49.11;99435.22;5049709;28;20125;-78
2022/04/09 09:02:55;;;;;;;5.75;2.30;;;;;;;21.63;44.76;99429.50;5049859;28;20117;-78
2022/04/09 09:05:32;;;;;;;7.40;2.88;;;;;;;21.73;45.13;99428.38;5050139;28;21893;-77
2022/04/09 09:07:57;;;;;;;7.72;2.30;;;;;;;21.72;45.12;99408.25;5050165;28;20017;-78
2022/04/09 09:10:23;;;;;;;6.50;2.63;;;;;;;21.83;43.95;99415.00;5049757;28;20021;-77
2022/04/09 09:13:09;;;;;;;9.30;3.25;;;;;;;22.02;42.25;99429.38;5049897;28;20029;-76
2022/04/09 09:15:50;;;;;;;8.20;4.18;;;;;;;22.17;41.25;99411.44;5049924;28;20031;-76
2022/04/09 09:18:21;;;;;;;8.45;2.72;;;;;;;22.32;40.90;99418.91;5049550;28;20469;-76
2022/04/09 09:20:54;;;;;;;9.27;3.65;;;;;;;22.41;40.92;99413.41;5047290;28;20028;-78
2022/04/09 09:23:22;;;;;;;6.88;2.78;;;;;;;22.52;41.53;99410.47;5049739;28;20096;-75
2022/04/09 09:25:49;;;;;;;7.05;2.72;;;;;;;22.36;42.65;99375.84;5049589;28;20074;-75
2022/04/09 09:28:22;;;;;;;6.68;2.45;;;;;;;22.53;43.43;99391.16;5049697;28;20029;-75
2022/04/09 09:30:48;;;;;;;5.55;2.25;;;;;;;22.42;42.93;99377.47;5049543;28;20029;-75
2022/04/09 09:33:14;;;;;;;4.72;2.67;;;;;;;22.56;41.39;99404.22;5049834;28;20107;-74
2022/04/09 09:35:56;;;;;;;6.35;2.50;;;;;;;22.56;41.93;99375.28;5049348;28;20112;-76
2022/04/09 09:38:23;;;;;;;8.27;2.47;;;;;;;22.66;40.18;99362.72;5048541;28;20067;-76
2022/04/09 09:40:50;;;;;;;4.68;2.50;;;;;;;22.88;40.21;99378.72;5049793;28;20028;-75
2022/04/09 09:43:20;;;;;;;5.88;2.63;;;;;;;22.89;39.95;99369.03;5049386;28;20087;-76
2022/04/09 09:45:47;;;;;;;7.93;2.67;;;;;;;23.19;37.10;99387.41;5049646;28;20100;-76
2022/04/09 09:48:29;;;;;;;8.52;2.92;;;;;;;23.29;38.82;99388.84;5040712;28;20037;-77
2022/04/09 09:50:57;;;;;;;5.90;2.58;;;;;;;23.35;38.12;99358.81;5047207;28;20014;-78
2022/04/09 09:53:33;;;;;;;5.10;2.30;;;;;;;23.40;38.10;99367.41;5049424;28;20040;-74
2022/04/09 09:56:00;;;;;;;8.52;2.75;;;;;;;23.59;37.96;99360.59;5038823;28;20036;-76
2022/04/09 09:58:27;;;;;;;5.38;2.33;;;;;;;23.71;37.54;99359.34;5044797;28;20614;-76
2022/04/09 10:00:55;;;;;;;5.53;2.42;;;;;;;23.88;40.57;99352.59;5048178;28;20029;-76
2022/04/09 10:03:21;;;;;;;7.38;2.50;;;;;;;23.71;40.01;99343.53;5040886;28;20057;-77
2022/04/09 10:05:48;;;;;;;6.32;2.47;;;;;;;23.81;39.95;99353.72;5039688;28;20478;-77
2022/04/09 10:08:14;;;;;;;9.18;2.20;;;;;;;23.95;37.52;99333.03;5042921;28;20037;-77
2022/04/09 10:10:43;;;;;;;4.65;2.15;;;;;;;24.08;34.19;99303.59;5039380;28;20056;-77
2022/04/09 10:13:10;;;;;;;5.68;2.17;;;;;;;24.32;35.49;99336.91;5042142;28;20112;-75
2022/04/09 10:15:41;;;;;;;6.53;2.38;;;;;;;24.26;35.91;99334.50;5047143;28;20444;-76
2022/04/09 10:18:09;;;;;;;4.40;2.17;;;;;;;24.32;36.68;99315.81;5050924;28;20021;-77
2022/04/09 10:20:35;;;;;;;5.88;2.35;;;;;;;24.48;35.92;99328.44;5016257;28;20045;-77
2022/04/09 10:23:06;;;;;;;6.97;2.30;;;;;;;24.46;35.98;99325.00;5039380;28;20029;-77
2022/04/09 10:25:32;;;;;;;7.60;2.60;;;;;;;24.38;39.30;99312.94;5040440;28;20030;-77
2022/04/09 10:28:03;;;;;;;6.47;2.47;;;;;;;24.16;39.87;99293.59;5033478;28;20021;-77
2022/04/09 10:30:37;;;;;;;5.63;2.35;;;;;;;24.15;39.28;99321.75;5039981;28;20038;-78
2022/04/09 10:33:02;;;;;;;7.72;2.20;;;;;;;24.08;41.96;99287.78;5028327;28;20132;-77
2022/04/09 10:35:29;;;;;;;6.05;2.35;;;;;;;24.05;42.73;99284.31;5010088;28;20137;-78
2022/04/09 10:38:06;;;;;;;6.03;2.72;;;;;;;24.27;40.59;99309.03;5026882;28;20042;-77
2022/04/09 10:40:35;;;;;;;5.53;2.50;;;;;;;24.19;39.87;99307.53;5029443;28;20508;-77
2022/04/09 10:43:02;;;;;;;6.45;2.75;;;;;;;23.92;41.91;99296.25;5027609;28;20500;-77
2022/04/09 10:45:32;;;;;;;10.10;3.13;;;;;;;24.16;41.19;99283.94;5029238;28;20512;-77
2022/04/09 10:48:08;;;;;;;7.47;2.53;;;;;;;24.49;38.48;99293.22;5030048;28;20048;-78
2022/04/09 10:50:52;;;;;;;6.45;2.40;;;;;;;24.73;39.41;99293.19;5026379;28;20576;-77
2022/04/09 10:53:23;;;;;;;6.75;2.28;;;;;;;24.61;38.72;99271.63;5027708;28;20036;-77
2022/04/09 10:56:32;;;;;;;4.78;2.30;;;;;;;24.83;39.81;99268.13;5030281;28;20049;-78
2022/04/09 10:59:09;;;;;;;5.60;2.67;;;;;;;24.97;41.55;99268.44;5029862;28;20149;-77
2022/04/09 11:01:47;;;;;;;5.35;2.60;;;;;;;24.81;38.48;99259.41;5013771;28;20044;-77
2022/04/09 11:04:36;;;;;;;5.43;2.63;;;;;;;25.16;37.58;99260.59;5029020;28;20480;-77
2022/04/09 11:07:04;;;;;;;;;;;;;;;25.15;38.61;99261.50;5027958;28;20027;-74
2022/04/09 11:09:42;;;;;;;7.80;3.10;;;;;;;25.17;39.26;99254.38;5031706;28;19917;-75
2022/04/09 11:12:07;;;;;;;5.47;2.38;;;;;;;25.04;38.21;99248.75;5043798;28;20052;-78
2022/04/09 11:15:17;;;;;;;7.93;2.63;;;;;;;25.14;38.28;99254.50;5045784;28;20029;-76
2022/04/09 11:17:48;;;;;;;10.70;3.00;;;;;;;25.32;39.34;99246.69;4981394;28;20077;-77
2022/04/09 11:20:17;;;;;;;7.10;2.70;;;;;;;25.32;39.00;99252.84;4980672;28;20054;-78
2022/04/09 11:22:45;;;;;;;6.75;2.83;;;;;;;25.16;39.31;99243.84;4977904;28;20093;-76
2022/04/09 11:25:21;;;;;;;7.60;2.80;;;;;;;25.22;41.78;99245.38;4985756;28;20030;-74
2022/04/09 11:27:47;;;;;;;6.03;2.50;;;;;;;25.15;42.51;99245.66;4990703;28;20042;-75
2022/04/09 11:30:13;;;;;;;6.97;2.53;;;;;;;25.34;39.97;99248.34;4990786;28;20049;-75
2022/04/09 11:32:40;;;;;;;7.03;2.53;;;;;;;25.55;37.97;99242.25;4990318;28;20549;-75